sensor_id;sensor_type;location;lat;lon;timestamp;P1;durP1;ratioP1;P2;durP2;ratioP2
10637;SDS011;47007;49.252;8.904;2023-04-24T00:00:37;0.85;;;0.40;;
10637;SDS011;47007;49.252;8.904;2023-04-24T00:01:22;0.43;;;0.20;;
10637;SDS011;47007;49.252;8.904;2023-04-24T00:02:03;1.27;;;0.35;;
10637;SDS011;47007;49.252;8.904;2023-04-24T00:02:45;1.42;;;0.30;;
10637;SDS011;47007;49.252;8.904;2023-04-24T00:03:30;0.65;;;0.30;;
10637;SDS011;47007;49.252;8.904;2023-04-24T00:04:12;0.60;;;0.30;;
10637;SDS011;47007;49.252;8.904;2023-04-24T00:04:58;0.45;;;0.20;;
10637;SDS011;47007;49.252;8.904;2023-04-24T00:05:44;1.40;;;0.30;;
10637;SDS011;47007;49.252;8.904;2023-04-24T00:06:26;0.20;;;0.17;;
10637;SDS011;47007;49.252;8.904;2023-04-24T00:07:14;0.60;;;0.17;;
10637;SDS011;47007;49.252;8.904;2023-04-24T00:07:58;0.85;;;0.20;;
10637;SDS011;47007;49.252;8.904;2023-04-24T00:08:39;1.38;;;0.10;;
10637;SDS011;47007;49.252;8.904;2023-04-24T00:09:21;1.20;;;0.22;;
10637;SDS011;47007;49.252;8.904;2023-04-24T00:10:03;1.33;;;0.10;;
10637;SDS011;47007;49.252;8.904;2023-04-24T00:10:45;1.27;;;0.20;;
10637;SDS011;47007;49.252;8.904;2023-04-24T00:11:26;1.20;;;0.20;;
10637;SDS011;47007;49.252;8.904;2023-04-24T00:12:09;0.17;;;0.10;;
10637;SDS011;47007;49.252;8.904;2023-04-24T00:12:51;0.85;;;0.20;;
10637;SDS011;47007;49.252;8.904;2023-04-24T00:13:32;1.50;;;0.20;;
10637;SDS011;47007;49.252;8.904;2023-04-24T00:14:14;0.90;;;0.20;;
10637;SDS011;47007;49.252;8.904;2023-04-24T00:14:56;0.20;;;0.20;;
10637;SDS011;47007;49.252;8.904;2023-04-24T00:15:38;0.30;;;0.13;;
10637;SDS011;47007;49.252;8.904;2023-04-24T00:16:20;0.60;;;0.20;;
10637;SDS011;47007;49.252;8.904;2023-04-24T00:17:02;1.15;;;0.30;;
10637;SDS011;47007;49.252;8.904;2023-04-24T00:17:44;0.63;;;0.22;;
10637;SDS011;47007;49.252;8.904;2023-04-24T00:18:25;0.77;;;0.20;;
10637;SDS011;47007;49.252;8.904;2023-04-24T00:19:07;0.30;;;0.20;;
10637;SDS011;47007;49.252;8.904;2023-04-24T00:19:49;0.30;;;0.20;;
10637;SDS011;47007;49.252;8.904;2023-04-24T00:20:32;1.05;;;0.20;;
10637;SDS011;47007;49.252;8.904;2023-04-24T00:21:15;1.38;;;0.20;;
10637;SDS011;47007;49.252;8.904;2023-04-24T00:21:58;0.77;;;0.30;;
10637;SDS011;47007;49.252;8.904;2023-04-24T00:22:41;0.60;;;0.30;;
10637;SDS011;47007;49.252;8.904;2023-04-24T00:23:22;1.25;;;0.20;;
10637;SDS011;47007;49.252;8.904;2023-04-24T00:24:04;1.10;;;0.20;;
10637;SDS011;47007;49.252;8.904;2023-04-24T00:24:46;1.58;;;0.20;;
10637;SDS011;47007;49.252;8.904;2023-04-24T00:25:27;0.75;;;0.30;;
10637;SDS011;47007;49.252;8.904;2023-04-24T00:26:09;1.13;;;0.13;;
10637;SDS011;47007;49.252;8.904;2023-04-24T00:26:51;0.35;;;0.20;;
10637;SDS011;47007;49.252;8.904;2023-04-24T00:27:33;0.22;;;0.20;;
10637;SDS011;47007;49.252;8.904;2023-04-24T00:28:16;1.13;;;0.20;;
10637;SDS011;47007;49.252;8.904;2023-04-24T00:28:58;0.20;;;0.20;;
10637;SDS011;47007;49.252;8.904;2023-04-24T00:29:41;0.65;;;0.30;;
10637;SDS011;47007;49.252;8.904;2023-04-24T00:30:23;0.63;;;0.25;;
10637;SDS011;47007;49.252;8.904;2023-04-24T00:31:05;0.68;;;0.20;;
10637;SDS011;47007;49.252;8.904;2023-04-24T00:31:46;0.47;;;0.28;;
10637;SDS011;47007;49.252;8.904;2023-04-24T00:32:28;1.30;;;0.20;;
10637;SDS011;47007;49.252;8.904;2023-04-24T00:33:10;0.45;;;0.20;;
10637;SDS011;47007;49.252;8.904;2023-04-24T00:33:51;0.98;;;0.30;;
10637;SDS011;47007;49.252;8.904;2023-04-24T00:34:33;0.63;;;0.20;;
10637;SDS011;47007;49.252;8.904;2023-04-24T00:35:15;0.68;;;0.20;;
10637;SDS011;47007;49.252;8.904;2023-04-24T00:35:56;1.42;;;0.20;;
10637;SDS011;47007;49.252;8.904;2023-04-24T00:36:38;1.55;;;0.20;;
10637;SDS011;47007;49.252;8.904;2023-04-24T00:37:20;0.85;;;0.30;;
10637;SDS011;47007;49.252;8.904;2023-04-24T00:38:01;0.50;;;0.20;;
10637;SDS011;47007;49.252;8.904;2023-04-24T00:38:43;1.83;;;0.60;;
10637;SDS011;47007;49.252;8.904;2023-04-24T00:39:25;0.28;;;0.20;;
10637;SDS011;47007;49.252;8.904;2023-04-24T00:40:07;1.15;;;0.22;;
10637;SDS011;47007;49.252;8.904;2023-04-24T00:40:49;0.52;;;0.20;;
10637;SDS011;47007;49.252;8.904;2023-04-24T00:41:31;0.95;;;0.40;;
10637;SDS011;47007;49.252;8.904;2023-04-24T00:42:13;0.90;;;0.20;;
10637;SDS011;47007;49.252;8.904;2023-04-24T00:42:54;0.68;;;0.30;;
10637;SDS011;47007;49.252;8.904;2023-04-24T00:43:37;1.70;;;0.20;;
10637;SDS011;47007;49.252;8.904;2023-04-24T00:44:18;1.67;;;0.20;;
10637;SDS011;47007;49.252;8.904;2023-04-24T00:45:00;0.40;;;0.20;;
10637;SDS011;47007;49.252;8.904;2023-04-24T00:45:44;0.40;;;0.20;;
10637;SDS011;47007;49.252;8.904;2023-04-24T00:46:26;0.85;;;0.20;;
10637;SDS011;47007;49.252;8.904;2023-04-24T00:47:07;0.80;;;0.20;;
10637;SDS011;47007;49.252;8.904;2023-04-24T00:47:49;0.17;;;0.10;;
10637;SDS011;47007;49.252;8.904;2023-04-24T00:48:34;1.73;;;0.35;;
10637;SDS011;47007;49.252;8.904;2023-04-24T00:49:15;1.80;;;0.22;;
10637;SDS011;47007;49.252;8.904;2023-04-24T00:49:57;0.52;;;0.22;;
10637;SDS011;47007;49.252;8.904;2023-04-24T00:50:39;0.80;;;0.40;;
10637;SDS011;47007;49.252;8.904;2023-04-24T00:51:20;0.43;;;0.30;;
10637;SDS011;47007;49.252;8.904;2023-04-24T00:52:02;0.28;;;0.20;;
10637;SDS011;47007;49.252;8.904;2023-04-24T00:52:48;0.57;;;0.20;;
10637;SDS011;47007;49.252;8.904;2023-04-24T00:53:30;0.47;;;0.30;;
10637;SDS011;47007;49.252;8.904;2023-04-24T00:54:12;0.75;;;0.22;;
10637;SDS011;47007;49.252;8.904;2023-04-24T00:54:54;0.77;;;0.30;;
10637;SDS011;47007;49.252;8.904;2023-04-24T00:55:38;0.73;;;0.20;;
10637;SDS011;47007;49.252;8.904;2023-04-24T00:56:20;0.80;;;0.30;;
10637;SDS011;47007;49.252;8.904;2023-04-24T00:57:04;0.57;;;0.20;;
10637;SDS011;47007;49.252;8.904;2023-04-24T00:57:48;1.30;;;0.20;;
10637;SDS011;47007;49.252;8.904;2023-04-24T00:58:30;0.40;;;0.20;;
10637;SDS011;47007;49.252;8.904;2023-04-24T00:59:13;0.85;;;0.20;;
10637;SDS011;47007;49.252;8.904;2023-04-24T00:59:57;0.20;;;0.20;;
10637;SDS011;47007;49.252;8.904;2023-04-24T01:00:39;0.98;;;0.28;;
10637;SDS011;47007;49.252;8.904;2023-04-24T01:01:21;0.43;;;0.10;;
10637;SDS011;47007;49.252;8.904;2023-04-24T01:02:04;0.45;;;0.20;;
10637;SDS011;47007;49.252;8.904;2023-04-24T01:02:47;0.93;;;0.38;;
10637;SDS011;47007;49.252;8.904;2023-04-24T01:03:30;0.57;;;0.20;;
10637;SDS011;47007;49.252;8.904;2023-04-24T01:04:15;0.70;;;0.20;;
10637;SDS011;47007;49.252;8.904;2023-04-24T01:04:59;0.30;;;0.20;;
10637;SDS011;47007;49.252;8.904;2023-04-24T01:05:42;1.05;;;0.28;;
10637;SDS011;47007;49.252;8.904;2023-04-24T01:06:23;0.47;;;0.28;;
10637;SDS011;47007;49.252;8.904;2023-04-24T01:07:09;1.05;;;0.20;;
10637;SDS011;47007;49.252;8.904;2023-04-24T01:07:52;1.73;;;0.22;;
10637;SDS011;47007;49.252;8.904;2023-04-24T01:08:34;0.22;;;0.20;;
10637;SDS011;47007;49.252;8.904;2023-04-24T01:09:17;0.60;;;0.20;;
10637;SDS011;47007;49.252;8.904;2023-04-24T01:10:00;0.38;;;0.30;;
10637;SDS011;47007;49.252;8.904;2023-04-24T01:10:42;0.60;;;0.20;;
10637;SDS011;47007;49.252;8.904;2023-04-24T01:11:26;1.65;;;0.17;;
10637;SDS011;47007;49.252;8.904;2023-04-24T01:12:07;0.20;;;0.20;;
10637;SDS011;47007;49.252;8.904;2023-04-24T01:12:51;0.30;;;0.15;;
10637;SDS011;47007;49.252;8.904;2023-04-24T01:13:33;0.35;;;0.20;;
10637;SDS011;47007;49.252;8.904;2023-04-24T01:14:17;0.63;;;0.20;;
10637;SDS011;47007;49.252;8.904;2023-04-24T01:14:58;0.82;;;0.30;;
10637;SDS011;47007;49.252;8.904;2023-04-24T01:15:40;0.60;;;0.20;;
10637;SDS011;47007;49.252;8.904;2023-04-24T01:16:22;1.67;;;0.20;;
10637;SDS011;47007;49.252;8.904;2023-04-24T01:17:05;0.50;;;0.20;;
10637;SDS011;47007;49.252;8.904;2023-04-24T01:17:47;0.32;;;0.20;;
10637;SDS011;47007;49.252;8.904;2023-04-24T01:18:28;0.43;;;0.10;;
10637;SDS011;47007;49.252;8.904;2023-04-24T01:19:10;0.77;;;0.30;;
10637;SDS011;47007;49.252;8.904;2023-04-24T01:19:53;1.27;;;0.20;;
10637;SDS011;47007;49.252;8.904;2023-04-24T01:20:39;0.52;;;0.20;;
10637;SDS011;47007;49.252;8.904;2023-04-24T01:21:21;1.27;;;0.20;;
10637;SDS011;47007;49.252;8.904;2023-04-24T01:22:10;0.77;;;0.20;;
10637;SDS011;47007;49.252;8.904;2023-04-24T01:22:54;2.08;;;0.30;;
10637;SDS011;47007;49.252;8.904;2023-04-24T01:23:37;1.00;;;0.20;;
10637;SDS011;47007;49.252;8.904;2023-04-24T01:24:19;1.35;;;0.30;;
10637;SDS011;47007;49.252;8.904;2023-04-24T01:25:01;1.85;;;0.22;;
10637;SDS011;47007;49.252;8.904;2023-04-24T01:25:44;0.32;;;0.20;;
10637;SDS011;47007;49.252;8.904;2023-04-24T01:26:26;1.30;;;0.20;;
10637;SDS011;47007;49.252;8.904;2023-04-24T01:27:08;0.75;;;0.20;;
10637;SDS011;47007;49.252;8.904;2023-04-24T01:27:51;1.17;;;0.20;;
10637;SDS011;47007;49.252;8.904;2023-04-24T01:28:33;1.58;;;0.20;;
10637;SDS011;47007;49.252;8.904;2023-04-24T01:29:15;0.85;;;0.50;;
10637;SDS011;47007;49.252;8.904;2023-04-24T01:29:57;0.20;;;0.17;;
10637;SDS011;47007;49.252;8.904;2023-04-24T01:30:39;0.73;;;0.20;;
10637;SDS011;47007;49.252;8.904;2023-04-24T01:31:21;0.60;;;0.15;;
10637;SDS011;47007;49.252;8.904;2023-04-24T01:32:03;0.40;;;0.20;;
10637;SDS011;47007;49.252;8.904;2023-04-24T01:32:46;0.70;;;0.20;;
10637;SDS011;47007;49.252;8.904;2023-04-24T01:33:28;0.30;;;0.20;;
10637;SDS011;47007;49.252;8.904;2023-04-24T01:34:10;1.13;;;0.20;;
10637;SDS011;47007;49.252;8.904;2023-04-24T01:34:52;1.27;;;0.30;;
10637;SDS011;47007;49.252;8.904;2023-04-24T01:35:34;0.63;;;0.20;;
10637;SDS011;47007;49.252;8.904;2023-04-24T01:36:17;0.22;;;0.20;;
10637;SDS011;47007;49.252;8.904;2023-04-24T01:36:59;0.55;;;0.20;;
10637;SDS011;47007;49.252;8.904;2023-04-24T01:37:41;0.20;;;0.10;;
10637;SDS011;47007;49.252;8.904;2023-04-24T01:38:23;1.00;;;0.20;;
10637;SDS011;47007;49.252;8.904;2023-04-24T01:39:05;0.75;;;0.20;;
10637;SDS011;47007;49.252;8.904;2023-04-24T01:39:46;0.40;;;0.20;;
10637;SDS011;47007;49.252;8.904;2023-04-24T01:40:28;0.30;;;0.30;;
10637;SDS011;47007;49.252;8.904;2023-04-24T01:41:11;0.35;;;0.30;;
10637;SDS011;47007;49.252;8.904;2023-04-24T01:41:53;0.52;;;0.25;;
10637;SDS011;47007;49.252;8.904;2023-04-24T01:42:36;1.00;;;0.28;;
10637;SDS011;47007;49.252;8.904;2023-04-24T01:43:18;1.00;;;0.40;;
10637;SDS011;47007;49.252;8.904;2023-04-24T01:44:00;1.70;;;0.30;;
10637;SDS011;47007;49.252;8.904;2023-04-24T01:44:42;0.85;;;0.22;;
10637;SDS011;47007;49.252;8.904;2023-04-24T01:45:25;0.50;;;0.30;;
10637;SDS011;47007;49.252;8.904;2023-04-24T01:46:06;1.83;;;0.20;;
10637;SDS011;47007;49.252;8.904;2023-04-24T01:46:50;0.77;;;0.30;;
10637;SDS011;47007;49.252;8.904;2023-04-24T01:47:32;0.57;;;0.20;;
10637;SDS011;47007;49.252;8.904;2023-04-24T01:48:14;1.77;;;0.22;;
10637;SDS011;47007;49.252;8.904;2023-04-24T01:48:56;0.88;;;0.22;;
10637;SDS011;47007;49.252;8.904;2023-04-24T01:49:38;0.35;;;0.20;;
10637;SDS011;47007;49.252;8.904;2023-04-24T01:50:20;0.98;;;0.25;;
10637;SDS011;47007;49.252;8.904;2023-04-24T01:51:02;1.17;;;0.30;;
10637;SDS011;47007;49.252;8.904;2023-04-24T01:51:44;0.43;;;0.20;;
10637;SDS011;47007;49.252;8.904;2023-04-24T01:52:25;1.67;;;0.30;;
10637;SDS011;47007;49.252;8.904;2023-04-24T01:53:08;0.57;;;0.20;;
10637;SDS011;47007;49.252;8.904;2023-04-24T01:53:50;0.20;;;0.20;;
10637;SDS011;47007;49.252;8.904;2023-04-24T01:54:31;0.47;;;0.20;;
10637;SDS011;47007;49.252;8.904;2023-04-24T01:55:13;0.20;;;0.20;;
10637;SDS011;47007;49.252;8.904;2023-04-24T01:55:55;1.45;;;0.20;;
10637;SDS011;47007;49.252;8.904;2023-04-24T01:56:42;0.73;;;0.20;;
10637;SDS011;47007;49.252;8.904;2023-04-24T01:57:24;0.22;;;0.17;;
10637;SDS011;47007;49.252;8.904;2023-04-24T01:58:07;3.22;;;0.40;;
10637;SDS011;47007;49.252;8.904;2023-04-24T01:58:49;0.45;;;0.22;;
10637;SDS011;47007;49.252;8.904;2023-04-24T01:59:33;0.63;;;0.20;;
10637;SDS011;47007;49.252;8.904;2023-04-24T02:00:16;0.88;;;0.10;;
10637;SDS011;47007;49.252;8.904;2023-04-24T02:01:00;0.57;;;0.20;;
10637;SDS011;47007;49.252;8.904;2023-04-24T02:01:42;2.30;;;0.22;;
10637;SDS011;47007;49.252;8.904;2023-04-24T02:02:23;1.05;;;0.20;;
10637;SDS011;47007;49.252;8.904;2023-04-24T02:03:05;0.60;;;0.20;;
10637;SDS011;47007;49.252;8.904;2023-04-24T02:03:47;0.52;;;0.30;;
10637;SDS011;47007;49.252;8.904;2023-04-24T02:04:30;1.27;;;0.20;;
10637;SDS011;47007;49.252;8.904;2023-04-24T02:05:12;1.48;;;0.20;;
10637;SDS011;47007;49.252;8.904;2023-04-24T02:05:53;0.22;;;0.17;;
10637;SDS011;47007;49.252;8.904;2023-04-24T02:06:35;1.35;;;0.20;;
10637;SDS011;47007;49.252;8.904;2023-04-24T02:07:17;0.57;;;0.20;;
10637;SDS011;47007;49.252;8.904;2023-04-24T02:07:58;0.95;;;0.30;;
10637;SDS011;47007;49.252;8.904;2023-04-24T02:08:40;0.35;;;0.20;;
10637;SDS011;47007;49.252;8.904;2023-04-24T02:09:22;0.55;;;0.25;;
10637;SDS011;47007;49.252;8.904;2023-04-24T02:10:04;1.42;;;0.30;;
10637;SDS011;47007;49.252;8.904;2023-04-24T02:10:46;0.77;;;0.20;;
10637;SDS011;47007;49.252;8.904;2023-04-24T02:11:28;1.38;;;0.40;;
10637;SDS011;47007;49.252;8.904;2023-04-24T02:12:11;0.50;;;0.30;;
10637;SDS011;47007;49.252;8.904;2023-04-24T02:12:53;1.55;;;0.30;;
10637;SDS011;47007;49.252;8.904;2023-04-24T02:13:37;1.02;;;0.30;;
10637;SDS011;47007;49.252;8.904;2023-04-24T02:14:20;0.75;;;0.30;;
10637;SDS011;47007;49.252;8.904;2023-04-24T02:15:01;0.30;;;0.20;;
10637;SDS011;47007;49.252;8.904;2023-04-24T02:15:44;0.57;;;0.35;;
10637;SDS011;47007;49.252;8.904;2023-04-24T02:16:26;0.88;;;0.25;;
10637;SDS011;47007;49.252;8.904;2023-04-24T02:17:11;0.52;;;0.20;;
10637;SDS011;47007;49.252;8.904;2023-04-24T02:17:54;2.08;;;0.20;;
10637;SDS011;47007;49.252;8.904;2023-04-24T02:18:36;0.90;;;0.20;;
10637;SDS011;47007;49.252;8.904;2023-04-24T02:19:17;0.65;;;0.20;;
10637;SDS011;47007;49.252;8.904;2023-04-24T02:19:59;0.88;;;0.30;;
10637;SDS011;47007;49.252;8.904;2023-04-24T02:20:41;1.05;;;0.32;;
10637;SDS011;47007;49.252;8.904;2023-04-24T02:21:22;0.75;;;0.35;;
10637;SDS011;47007;49.252;8.904;2023-04-24T02:22:04;1.10;;;0.40;;
10637;SDS011;47007;49.252;8.904;2023-04-24T02:22:46;1.05;;;0.30;;
10637;SDS011;47007;49.252;8.904;2023-04-24T02:23:27;0.57;;;0.20;;
10637;SDS011;47007;49.252;8.904;2023-04-24T02:24:09;0.68;;;0.30;;
10637;SDS011;47007;49.252;8.904;2023-04-24T02:24:51;0.30;;;0.30;;
10637;SDS011;47007;49.252;8.904;2023-04-24T02:25:33;0.82;;;0.30;;
10637;SDS011;47007;49.252;8.904;2023-04-24T02:26:14;2.03;;;0.40;;
10637;SDS011;47007;49.252;8.904;2023-04-24T02:26:58;0.70;;;0.40;;
10637;SDS011;47007;49.252;8.904;2023-04-24T02:27:39;0.93;;;0.22;;
10637;SDS011;47007;49.252;8.904;2023-04-24T02:28:21;0.63;;;0.30;;
10637;SDS011;47007;49.252;8.904;2023-04-24T02:29:04;0.30;;;0.25;;
10637;SDS011;47007;49.252;8.904;2023-04-24T02:29:46;0.45;;;0.22;;
10637;SDS011;47007;49.252;8.904;2023-04-24T02:30:28;1.20;;;0.28;;
10637;SDS011;47007;49.252;8.904;2023-04-24T02:31:09;0.73;;;0.38;;
10637;SDS011;47007;49.252;8.904;2023-04-24T02:31:51;0.73;;;0.30;;
10637;SDS011;47007;49.252;8.904;2023-04-24T02:32:33;0.90;;;0.30;;
10637;SDS011;47007;49.252;8.904;2023-04-24T02:33:15;2.28;;;0.47;;
10637;SDS011;47007;49.252;8.904;2023-04-24T02:33:57;0.70;;;0.50;;
10637;SDS011;47007;49.252;8.904;2023-04-24T02:34:38;0.57;;;0.30;;
10637;SDS011;47007;49.252;8.904;2023-04-24T02:35:20;1.35;;;0.32;;
10637;SDS011;47007;49.252;8.904;2023-04-24T02:36:02;1.10;;;0.40;;
10637;SDS011;47007;49.252;8.904;2023-04-24T02:36:44;0.40;;;0.30;;
10637;SDS011;47007;49.252;8.904;2023-04-24T02:37:25;0.32;;;0.32;;
10637;SDS011;47007;49.252;8.904;2023-04-24T02:38:07;1.33;;;0.40;;
10637;SDS011;47007;49.252;8.904;2023-04-24T02:38:50;0.82;;;0.40;;
10637;SDS011;47007;49.252;8.904;2023-04-24T02:39:32;0.47;;;0.30;;
10637;SDS011;47007;49.252;8.904;2023-04-24T02:40:13;2.25;;;0.40;;
10637;SDS011;47007;49.252;8.904;2023-04-24T02:40:55;0.98;;;0.47;;
10637;SDS011;47007;49.252;8.904;2023-04-24T02:41:37;0.93;;;0.28;;
10637;SDS011;47007;49.252;8.904;2023-04-24T02:42:18;1.02;;;0.30;;
10637;SDS011;47007;49.252;8.904;2023-04-24T02:43:00;1.85;;;0.50;;
10637;SDS011;47007;49.252;8.904;2023-04-24T02:43:42;1.20;;;0.30;;
10637;SDS011;47007;49.252;8.904;2023-04-24T02:44:23;1.10;;;0.60;;
10637;SDS011;47007;49.252;8.904;2023-04-24T02:45:05;1.02;;;0.70;;
10637;SDS011;47007;49.252;8.904;2023-04-24T02:45:48;1.75;;;0.80;;
10637;SDS011;47007;49.252;8.904;2023-04-24T02:46:30;1.45;;;1.30;;
10637;SDS011;47007;49.252;8.904;2023-04-24T02:47:12;0.90;;;0.65;;
10637;SDS011;47007;49.252;8.904;2023-04-24T02:47:53;2.88;;;0.70;;
10637;SDS011;47007;49.252;8.904;2023-04-24T02:48:35;1.10;;;0.80;;
10637;SDS011;47007;49.252;8.904;2023-04-24T02:49:16;1.38;;;0.90;;
10637;SDS011;47007;49.252;8.904;2023-04-24T02:49:58;1.63;;;0.70;;
10637;SDS011;47007;49.252;8.904;2023-04-24T02:50:40;1.05;;;0.40;;
10637;SDS011;47007;49.252;8.904;2023-04-24T02:51:22;0.77;;;0.38;;
10637;SDS011;47007;49.252;8.904;2023-04-24T02:52:03;1.70;;;0.30;;
10637;SDS011;47007;49.252;8.904;2023-04-24T02:52:45;0.70;;;0.30;;
10637;SDS011;47007;49.252;8.904;2023-04-24T02:53:26;1.52;;;0.30;;
10637;SDS011;47007;49.252;8.904;2023-04-24T02:54:08;0.98;;;0.70;;
10637;SDS011;47007;49.252;8.904;2023-04-24T02:54:51;1.20;;;0.55;;
10637;SDS011;47007;49.252;8.904;2023-04-24T02:55:35;1.98;;;0.43;;
10637;SDS011;47007;49.252;8.904;2023-04-24T02:56:17;1.85;;;0.40;;
10637;SDS011;47007;49.252;8.904;2023-04-24T02:56:59;1.45;;;0.47;;
10637;SDS011;47007;49.252;8.904;2023-04-24T02:57:42;2.08;;;0.55;;
10637;SDS011;47007;49.252;8.904;2023-04-24T02:58:24;1.33;;;0.40;;
10637;SDS011;47007;49.252;8.904;2023-04-24T02:59:06;1.20;;;0.50;;
10637;SDS011;47007;49.252;8.904;2023-04-24T02:59:48;1.40;;;0.57;;
10637;SDS011;47007;49.252;8.904;2023-04-24T03:00:30;1.85;;;0.30;;
10637;SDS011;47007;49.252;8.904;2023-04-24T03:01:11;0.50;;;0.30;;
10637;SDS011;47007;49.252;8.904;2023-04-24T03:01:53;0.80;;;0.40;;
10637;SDS011;47007;49.252;8.904;2023-04-24T03:02:35;0.70;;;0.30;;
10637;SDS011;47007;49.252;8.904;2023-04-24T03:03:16;2.10;;;0.30;;
10637;SDS011;47007;49.252;8.904;2023-04-24T03:03:58;1.20;;;0.50;;
10637;SDS011;47007;49.252;8.904;2023-04-24T03:04:40;0.88;;;0.60;;
10637;SDS011;47007;49.252;8.904;2023-04-24T03:05:24;1.77;;;0.80;;
10637;SDS011;47007;49.252;8.904;2023-04-24T03:06:06;2.08;;;0.90;;
10637;SDS011;47007;49.252;8.904;2023-04-24T03:06:49;1.00;;;0.90;;
10637;SDS011;47007;49.252;8.904;2023-04-24T03:07:34;2.13;;;1.17;;
10637;SDS011;47007;49.252;8.904;2023-04-24T03:08:16;2.33;;;1.17;;
10637;SDS011;47007;49.252;8.904;2023-04-24T03:08:57;2.10;;;1.23;;
10637;SDS011;47007;49.252;8.904;2023-04-24T03:09:40;2.03;;;0.85;;
10637;SDS011;47007;49.252;8.904;2023-04-24T03:10:22;1.52;;;0.73;;
10637;SDS011;47007;49.252;8.904;2023-04-24T03:11:04;1.75;;;0.90;;
10637;SDS011;47007;49.252;8.904;2023-04-24T03:11:45;1.33;;;0.90;;
10637;SDS011;47007;49.252;8.904;2023-04-24T03:12:27;1.48;;;1.02;;
10637;SDS011;47007;49.252;8.904;2023-04-24T03:13:09;1.80;;;0.60;;
10637;SDS011;47007;49.252;8.904;2023-04-24T03:13:50;3.15;;;0.82;;
10637;SDS011;47007;49.252;8.904;2023-04-24T03:14:33;0.95;;;0.70;;
10637;SDS011;47007;49.252;8.904;2023-04-24T03:15:16;1.15;;;0.52;;
10637;SDS011;47007;49.252;8.904;2023-04-24T03:15:57;1.00;;;0.60;;
10637;SDS011;47007;49.252;8.904;2023-04-24T03:16:41;1.48;;;0.63;;
10637;SDS011;47007;49.252;8.904;2023-04-24T03:17:22;1.33;;;0.47;;
10637;SDS011;47007;49.252;8.904;2023-04-24T03:18:04;1.75;;;0.40;;
10637;SDS011;47007;49.252;8.904;2023-04-24T03:18:46;1.38;;;0.30;;
10637;SDS011;47007;49.252;8.904;2023-04-24T03:19:28;0.80;;;0.30;;
10637;SDS011;47007;49.252;8.904;2023-04-24T03:20:18;1.40;;;0.40;;
10637;SDS011;47007;49.252;8.904;2023-04-24T03:21:00;0.70;;;0.30;;
10637;SDS011;47007;49.252;8.904;2023-04-24T03:21:42;1.05;;;0.30;;
10637;SDS011;47007;49.252;8.904;2023-04-24T03:22:24;3.08;;;0.50;;
10637;SDS011;47007;49.252;8.904;2023-04-24T03:23:06;0.82;;;0.28;;
10637;SDS011;47007;49.252;8.904;2023-04-24T03:23:49;1.00;;;0.30;;
10637;SDS011;47007;49.252;8.904;2023-04-24T03:24:31;2.95;;;0.30;;
10637;SDS011;47007;49.252;8.904;2023-04-24T03:25:13;1.15;;;0.32;;
10637;SDS011;47007;49.252;8.904;2023-04-24T03:25:55;1.02;;;0.50;;
10637;SDS011;47007;49.252;8.904;2023-04-24T03:26:37;2.80;;;0.30;;
10637;SDS011;47007;49.252;8.904;2023-04-24T03:27:42;2.15;;;0.73;;
10637;SDS011;47007;49.252;8.904;2023-04-24T03:28:50;1.13;;;0.30;;
10637;SDS011;47007;49.252;8.904;2023-04-24T03:29:32;1.85;;;0.30;;
10637;SDS011;47007;49.252;8.904;2023-04-24T03:30:13;0.60;;;0.30;;
10637;SDS011;47007;49.252;8.904;2023-04-24T03:31:07;1.58;;;0.40;;
10637;SDS011;47007;49.252;8.904;2023-04-24T03:31:50;0.73;;;0.20;;
10637;SDS011;47007;49.252;8.904;2023-04-24T03:32:32;1.33;;;0.30;;
10637;SDS011;47007;49.252;8.904;2023-04-24T03:33:15;1.25;;;0.40;;
10637;SDS011;47007;49.252;8.904;2023-04-24T03:34:06;1.85;;;0.30;;
10637;SDS011;47007;49.252;8.904;2023-04-24T03:34:49;0.77;;;0.30;;
10637;SDS011;47007;49.252;8.904;2023-04-24T03:35:31;1.40;;;0.50;;
10637;SDS011;47007;49.252;8.904;2023-04-24T03:36:15;1.95;;;0.40;;
10637;SDS011;47007;49.252;8.904;2023-04-24T03:36:57;2.45;;;0.25;;
10637;SDS011;47007;49.252;8.904;2023-04-24T03:37:39;1.05;;;0.40;;
10637;SDS011;47007;49.252;8.904;2023-04-24T03:38:39;1.27;;;0.40;;
10637;SDS011;47007;49.252;8.904;2023-04-24T03:39:35;1.05;;;0.40;;
10637;SDS011;47007;49.252;8.904;2023-04-24T03:40:17;0.55;;;0.20;;
10637;SDS011;47007;49.252;8.904;2023-04-24T03:41:01;0.55;;;0.30;;
10637;SDS011;47007;49.252;8.904;2023-04-24T03:41:53;0.75;;;0.30;;
10637;SDS011;47007;49.252;8.904;2023-04-24T03:42:40;0.90;;;0.20;;
10637;SDS011;47007;49.252;8.904;2023-04-24T03:43:22;1.58;;;0.45;;
10637;SDS011;47007;49.252;8.904;2023-04-24T03:44:04;0.60;;;0.20;;
10637;SDS011;47007;49.252;8.904;2023-04-24T03:44:46;0.70;;;0.30;;
10637;SDS011;47007;49.252;8.904;2023-04-24T03:45:28;1.00;;;0.30;;
10637;SDS011;47007;49.252;8.904;2023-04-24T03:46:10;1.20;;;0.30;;
10637;SDS011;47007;49.252;8.904;2023-04-24T03:46:57;1.77;;;0.45;;
10637;SDS011;47007;49.252;8.904;2023-04-24T03:47:39;0.95;;;0.30;;
10637;SDS011;47007;49.252;8.904;2023-04-24T03:48:21;2.10;;;0.40;;
10637;SDS011;47007;49.252;8.904;2023-04-24T03:49:03;1.85;;;0.40;;
10637;SDS011;47007;49.252;8.904;2023-04-24T03:49:49;1.45;;;0.50;;
10637;SDS011;47007;49.252;8.904;2023-04-24T03:50:31;3.25;;;0.38;;
10637;SDS011;47007;49.252;8.904;2023-04-24T03:51:13;1.30;;;0.50;;
10637;SDS011;47007;49.252;8.904;2023-04-24T03:51:58;1.48;;;0.40;;
10637;SDS011;47007;49.252;8.904;2023-04-24T03:52:41;1.58;;;0.50;;
10637;SDS011;47007;49.252;8.904;2023-04-24T03:53:24;1.33;;;0.40;;
10637;SDS011;47007;49.252;8.904;2023-04-24T03:54:08;0.30;;;0.30;;
10637;SDS011;47007;49.252;8.904;2023-04-24T03:54:52;0.98;;;0.45;;
10637;SDS011;47007;49.252;8.904;2023-04-24T03:55:34;0.77;;;0.30;;
10637;SDS011;47007;49.252;8.904;2023-04-24T03:56:16;1.02;;;0.43;;
10637;SDS011;47007;49.252;8.904;2023-04-24T03:56:57;0.93;;;0.50;;
10637;SDS011;47007;49.252;8.904;2023-04-24T03:57:41;1.02;;;0.47;;
10637;SDS011;47007;49.252;8.904;2023-04-24T03:58:31;1.55;;;0.68;;
10637;SDS011;47007;49.252;8.904;2023-04-24T03:59:14;0.82;;;0.40;;
10637;SDS011;47007;49.252;8.904;2023-04-24T03:59:59;1.55;;;0.50;;
10637;SDS011;47007;49.252;8.904;2023-04-24T04:00:41;0.85;;;0.50;;
10637;SDS011;47007;49.252;8.904;2023-04-24T04:01:43;0.70;;;0.30;;
10637;SDS011;47007;49.252;8.904;2023-04-24T04:02:28;0.80;;;0.40;;
10637;SDS011;47007;49.252;8.904;2023-04-24T04:03:10;0.45;;;0.45;;
10637;SDS011;47007;49.252;8.904;2023-04-24T04:03:52;0.80;;;0.52;;
10637;SDS011;47007;49.252;8.904;2023-04-24T04:04:37;2.22;;;0.60;;
10637;SDS011;47007;49.252;8.904;2023-04-24T04:05:19;0.40;;;0.40;;
10637;SDS011;47007;49.252;8.904;2023-04-24T04:06:01;1.00;;;0.68;;
10637;SDS011;47007;49.252;8.904;2023-04-24T04:06:43;3.63;;;0.52;;
10637;SDS011;47007;49.252;8.904;2023-04-24T04:07:28;1.98;;;0.50;;
10637;SDS011;47007;49.252;8.904;2023-04-24T04:08:11;2.17;;;0.60;;
10637;SDS011;47007;49.252;8.904;2023-04-24T04:08:53;0.55;;;0.50;;
10637;SDS011;47007;49.252;8.904;2023-04-24T04:09:34;0.50;;;0.50;;
10637;SDS011;47007;49.252;8.904;2023-04-24T04:10:16;0.93;;;0.68;;
10637;SDS011;47007;49.252;8.904;2023-04-24T04:10:58;1.13;;;0.68;;
10637;SDS011;47007;49.252;8.904;2023-04-24T04:11:40;1.20;;;0.55;;
10637;SDS011;47007;49.252;8.904;2023-04-24T04:12:21;1.55;;;0.50;;
10637;SDS011;47007;49.252;8.904;2023-04-24T04:13:03;1.30;;;0.68;;
10637;SDS011;47007;49.252;8.904;2023-04-24T04:13:45;0.77;;;0.70;;
10637;SDS011;47007;49.252;8.904;2023-04-24T04:14:31;0.75;;;0.60;;
10637;SDS011;47007;49.252;8.904;2023-04-24T04:15:12;2.60;;;0.90;;
10637;SDS011;47007;49.252;8.904;2023-04-24T04:15:55;0.85;;;0.60;;
10637;SDS011;47007;49.252;8.904;2023-04-24T04:16:37;0.93;;;0.60;;
10637;SDS011;47007;49.252;8.904;2023-04-24T04:17:19;1.05;;;0.68;;
10637;SDS011;47007;49.252;8.904;2023-04-24T04:18:01;0.70;;;0.60;;